Time;durP1;ratioP1;P1;durP2;ratioP2;P2;SDS_P1;SDS_P2;PMS_P1;PMS_P2;Temp;Humidity;BMP_temperature;BMP_pressure;BME280_temperature;BME280_humidity;BME280_pressure;Samples;Min_cycle;Max_cycle;Signal;HPM_P1;HPM_P2
2023/09/13 17:42:21;;;;;;;6.00;3.80;;;;;;;28.25;44.56;99962.91;5035730;27;1461880;-83
2023/09/13 17:44:50;;;;;;;7.95;4.13;;;;;;;28.06;44.99;99968.69;5060584;27;96887;-83
2023/09/13 17:47:17;;;;;;;4.55;3.17;;;;;;;27.94;45.20;99974.47;5058676;27;101652;-81
2023/09/13 17:49:43;;;;;;;5.30;3.40;;;;;;;27.83;45.56;99976.69;5061732;27;98430;-91
2023/09/13 17:52:08;;;;;;;5.10;3.50;;;;;;;27.73;45.58;99993.88;5065432;27;96736;-90
2023/09/13 17:54:35;;;;;;;9.77;3.65;;;;;;;27.66;45.84;99987.47;5082244;27;97442;-87
2023/09/13 17:57:01;;;;;;;6.13;3.40;;;;;;;27.61;45.75;99997.94;5053248;27;100524;-87
2023/09/13 17:59:28;;;;;;;9.20;4.43;;;;;;;27.53;45.95;99984.47;5040774;27;100975;-87
2023/09/13 18:01:53;;;;;;;7.43;3.90;;;;;;;27.47;45.90;99993.22;5053736;27;96817;-87
2023/09/13 18:04:19;;;;;;;4.65;3.35;;;;;;;27.41;46.05;99997.44;5070935;27;97376;-86
2023/09/13 18:06:45;;;;;;;5.85;3.28;;;;;;;27.38;46.08;100005.88;5046349;27;100506;-85
2023/09/13 18:09:11;;;;;;;6.07;3.20;;;;;;;27.34;46.25;99998.28;5069490;27;97334;-85
2023/09/13 18:11:38;;;;;;;6.68;3.20;;;;;;;27.29;46.23;100005.03;5047033;27;97366;-86
2023/09/13 18:14:05;;;;;;;4.45;3.55;;;;;;;27.27;46.10;100004.34;5048930;27;97642;-86
2023/09/13 18:16:31;;;;;;;7.90;4.15;;;;;;;27.24;46.25;100006.53;5078257;27;98327;-85
2023/09/13 18:18:56;;;;;;;6.68;4.05;;;;;;;27.20;46.12;100011.41;5071949;27;100843;-86
2023/09/13 18:21:22;;;;;;;8.90;4.20;;;;;;;27.15;46.35;100011.06;5054941;27;96792;-86
2023/09/13 18:23:47;;;;;;;6.35;3.92;;;;;;;27.10;46.31;100010.69;5075849;27;98992;-86
2023/09/13 18:26:17;;;;;;;8.80;3.67;;;;;;;26.97;46.80;100011.19;5060473;27;100163;-86
2023/09/13 18:28:45;;;;;;;5.65;3.38;;;;;;;26.96;47.32;100020.25;5063347;27;101246;-86
2023/09/13 18:31:12;;;;;;;8.52;3.35;;;;;;;26.94;47.10;100024.16;5067200;27;96838;-87
2023/09/13 18:33:37;;;;;;;5.53;2.90;;;;;;;26.91;47.57;100019.94;5071103;27;96886;-87
2023/09/13 18:36:04;;;;;;;5.93;3.33;;;;;;;26.91;47.60;100035.22;5052311;27;100317;-86
2023/09/13 18:38:30;;;;;;;8.93;4.30;;;;;;;26.90;47.83;100030.84;5057240;27;97976;-83
2023/09/13 18:40:55;;;;;;;5.72;2.90;;;;;;;26.87;47.93;100035.56;5049653;27;97224;-87
2023/09/13 18:43:21;;;;;;;6.03;3.13;;;;;;;26.83;47.89;100031.50;5065720;27;97238;-87
2023/09/13 18:45:57;;;;;;;5.60;2.35;;;;;;;26.80;48.01;100033.69;5055051;27;97705;-86
2023/09/13 18:48:22;;;;;;;4.65;2.75;;;;;;;26.77;48.36;100026.78;5041795;27;101725;-87
2023/09/13 18:50:56;;;;;;;6.35;2.67;;;;;;;26.70;49.92;100024.91;5084526;27;96736;-86
2023/09/13 18:53:23;;;;;;;5.35;2.47;;;;;;;26.55;51.12;100030.91;5048867;27;96878;-87
2023/09/13 18:55:48;;;;;;;5.95;2.63;;;;;;;26.53;51.52;100046.41;5063366;27;100724;-89
2023/09/13 18:58:13;;;;;;;4.28;2.45;;;;;;;26.45;51.50;100042.78;5061807;27;98522;-87
2023/09/13 19:00:39;;;;;;;2.88;2.30;;;;;;;26.39;51.92;100044.28;5043236;27;97562;-85
2023/09/13 19:03:04;;;;;;;3.85;2.30;;;;;;;26.36;51.50;100047.28;5044591;27;97415;-87
2023/09/13 19:05:30;;;;;;;4.53;2.35;;;;;;;26.27;51.26;100046.41;5045925;27;101856;-87
2023/09/13 19:07:55;;;;;;;3.08;2.13;;;;;;;26.03;51.42;100051.63;5053384;27;100660;-88
2023/09/13 19:10:21;;;;;;;4.25;1.95;;;;;;;26.09;50.81;100049.19;5053706;27;99100;-87
2023/09/13 19:12:50;;;;;;;3.85;2.80;;;;;;;26.10;50.43;100056.22;5050412;27;97218;-86
2023/09/13 19:15:16;;;;;;;3.05;2.05;;;;;;;26.09;50.30;100054.56;5057111;27;97820;-86
2023/09/13 19:17:42;;;;;;;3.42;2.08;;;;;;;26.06;50.26;100060.22;5054958;27;101346;-86
2023/09/13 19:20:08;;;;;;;3.97;2.00;;;;;;;25.99;50.15;100050.28;5050429;27;96779;-87
2023/09/13 19:22:34;;;;;;;3.20;1.90;;;;;;;25.96;50.06;100056.81;5059119;27;97218;-88
2023/09/13 19:24:59;;;;;;;7.80;1.80;;;;;;;25.94;49.78;100054.25;5037089;27;101423;-88
2023/09/13 19:27:25;;;;;;;5.88;1.95;;;;;;;25.90;49.75;100057.44;5052894;27;98048;-86
2023/09/13 19:29:51;;;;;;;6.10;5.50;;;;;;;25.85;49.76;100054.38;5057456;27;96963;-87
2023/09/13 19:32:16;;;;;;;9.13;3.85;;;;;;;25.80;49.70;100053.97;5037366;27;97622;-87
2023/09/13 19:34:45;;;;;;;5.32;4.55;;;;;;;25.77;49.67;100060.50;5043596;27;101584;-88
2023/09/13 19:37:10;;;;;;;3.33;2.50;;;;;;;25.72;49.62;100060.13;5066446;27;96814;-86
2023/09/13 19:39:35;;;;;;;4.15;3.72;;;;;;;25.70;49.73;100054.06;5070840;27;97430;-87
2023/09/13 19:42:01;;;;;;;7.80;5.07;;;;;;;25.65;49.65;100053.69;5055037;27;97323;-87
2023/09/13 19:44:27;;;;;;;6.03;5.57;;;;;;;25.63;49.61;100058.38;5045669;27;101423;-87
2023/09/13 19:46:53;;;;;;;6.82;2.17;;;;;;;25.55;49.78;100058.31;5065359;27;100867;-86
2023/09/13 19:49:19;;;;;;;4.93;2.17;;;;;;;25.51;49.79;100066.69;5037011;27;97441;-84
2023/09/13 19:51:44;;;;;;;2.45;1.80;;;;;;;25.49;49.88;100066.00;5037622;27;97425;-87
2023/09/13 19:54:10;;;;;;;2.55;1.80;;;;;;;25.47;49.97;100067.16;5058874;27;98055;-84
2023/09/13 19:56:35;;;;;;;8.18;4.40;;;;;;;25.44;49.84;100073.66;5050961;27;101510;-87
2023/09/13 19:59:01;;;;;;;4.03;2.03;;;;;;;25.44;49.69;100079.03;5070647;27;96843;-84
2023/09/13 20:01:27;;;;;;;4.82;1.92;;;;;;;25.44;49.62;100081.72;5057893;27;97685;-88
2023/09/13 20:03:52;;;;;;;6.03;2.00;;;;;;;25.42;49.75;100083.72;5052571;27;101002;-85
2023/09/13 20:06:19;;;;;;;7.57;1.80;;;;;;;25.43;49.80;100103.38;5054661;27;98152;-88
2023/09/13 20:08:46;;;;;;;7.53;2.20;;;;;;;25.41;49.75;100097.31;5037417;27;97386;-85
2023/09/13 20:11:11;;;;;;;3.13;1.80;;;;;;;25.39;50.12;100091.25;5068868;27;96843;-87
2023/09/13 20:13:39;;;;;;;3.33;1.58;;;;;;;25.39;49.87;100099.31;5066266;27;98073;-87
2023/09/13 20:16:05;;;;;;;7.70;2.40;;;;;;;25.36;50.07;100102.28;5032220;27;100412;-87
2023/09/13 20:18:30;;;;;;;5.35;2.28;;;;;;;25.32;49.93;100091.03;5039485;27;96915;-86
2023/09/13 20:20:57;;;;;;;5.60;2.00;;;;;;;25.23;50.27;100084.72;5048567;27;96958;-87
2023/09/13 20:23:23;;;;;;;4.07;2.42;;;;;;;25.23;50.24;100094.63;5051925;27;100871;-87
2023/09/13 20:25:49;;;;;;;3.92;2.03;;;;;;;25.21;50.31;100101.97;5045597;27;97655;-86
2023/09/13 20:28:15;;;;;;;9.25;3.63;;;;;;;25.19;50.29;100098.59;5036852;27;97301;-87
2023/09/13 20:30:40;;;;;;;4.63;2.50;;;;;;;25.15;50.36;100110.66;5053609;27;96859;-86
2023/09/13 20:33:06;;;;;;;6.53;2.08;;;;;;;25.13;50.68;100109.91;5052038;27;101006;-87
2023/09/13 20:35:32;;;;;;;5.15;2.42;;;;;;;25.12;50.69;100114.44;5040924;27;101607;-87
2023/09/13 20:37:58;;;;;;;5.18;2.13;;;;;;;25.07;50.53;100101.47;5058805;27;97073;-87
2023/09/13 20:40:24;;;;;;;5.30;1.90;;;;;;;25.06;50.78;100107.00;5070983;27;97234;-87
2023/09/13 20:42:49;;;;;;;6.20;2.00;;;;;;;25.04;50.67;100114.34;5037516;27;102307;-86
2023/09/13 20:45:15;;;;;;;4.22;1.98;;;;;;;25.02;50.79;100111.81;5049677;27;100087;-86
2023/09/13 20:47:41;;;;;;;5.30;2.35;;;;;;;25.02;51.00;100117.19;5037565;27;97494;-84
2023/09/13 20:50:08;;;;;;;3.38;1.88;;;;;;;25.00;51.12;100124.53;5036587;27;97855;-87
2023/09/13 20:52:34;;;;;;;5.03;2.00;;;;;;;24.99;51.01;100130.94;5037327;27;101146;-87
2023/09/13 20:55:00;;;;;;;3.17;1.98;;;;;;;25.00;51.13;100137.97;5055875;27;101359;-87
2023/09/13 20:57:25;;;;;;;9.18;3.45;;;;;;;24.96;51.12;100139.28;5044099;27;96812;-85
2023/09/13 20:59:51;;;;;;;4.68;1.90;;;;;;;24.96;51.08;100141.97;5056905;27;97191;-87
2023/09/13 21:02:16;;;;;;;3.97;2.03;;;;;;;24.95;51.07;100144.78;5059262;27;97915;-86
2023/09/13 21:04:42;;;;;;;3.83;1.98;;;;;;;24.92;51.28;100135.19;5050125;27;101018;-87
2023/09/13 21:07:07;;;;;;;4.88;2.10;;;;;;;24.92;51.29;100137.03;5038540;27;96954;-86
2023/09/13 21:09:34;;;;;;;21.88;16.40;;;;;;;24.92;51.25;100143.25;5049568;27;97165;-87
2023/09/13 21:12:00;;;;;;;7.20;4.03;;;;;;;24.88;51.32;100138.34;5037471;27;100733;-84
2023/09/13 21:14:26;;;;;;;2.75;2.42;;;;;;;24.89;51.09;100143.53;5047416;27;101290;-85
2023/09/13 21:16:51;;;;;;;4.55;2.00;;;;;;;24.83;51.42;100147.66;5061525;27;97779;-86
2023/09/13 21:19:19;;;;;;;5.53;2.42;;;;;;;24.82;51.46;100151.34;5053261;27;97239;-86
2023/09/13 21:21:45;;;;;;;3.55;1.83;;;;;;;24.78;51.43;100143.72;5040766;27;101046;-87
2023/09/13 21:24:11;;;;;;;4.85;1.85;;;;;;;24.75;51.59;100142.19;5050866;27;100228;-86
2023/09/13 21:26:37;;;;;;;5.47;2.30;;;;;;;24.71;51.50;100143.47;5051935;27;96807;-87
2023/09/13 21:29:02;;;;;;;3.25;2.17;;;;;;;24.70;51.60;100152.53;5040451;27;97173;-86
2023/09/13 21:31:28;;;;;;;4.45;1.70;;;;;;;24.67;51.94;100154.63;5037630;27;101168;-87
2023/09/13 21:33:53;;;;;;;2.58;1.90;;;;;;;24.63;51.88;100157.63;5037975;27;101545;-87
2023/09/13 21:36:19;;;;;;;3.72;2.17;;;;;;;24.59;52.16;100166.13;5052622;27;97231;-85
2023/09/13 21:38:46;;;;;;;2.95;1.98;;;;;;;24.51;52.03;100172.22;5022402;27;97022;-87
2023/09/13 21:41:12;;;;;;;2.67;1.98;;;;;;;24.51;52.02;100177.56;5053192;27;99344;-87
2023/09/13 21:43:38;;;;;;;8.32;2.88;;;;;;;24.46;52.27;100179.00;5032993;27;100343;-87
2023/09/13 21:46:04;;;;;;;2.05;1.80;;;;;;;24.46;52.04;100185.22;5060985;27;97404;-87
2023/09/13 21:48:30;;;;;;;4.00;2.15;;;;;;;24.42;52.10;100185.63;5049724;27;97435;-86
2023/09/13 21:51:00;;;;;;;3.58;1.90;;;;;;;24.44;52.17;100195.25;5042945;27;101072;-86
2023/09/13 21:53:26;;;;;;;7.00;2.00;;;;;;;24.38;52.36;100191.28;5043429;27;100874;-87
2023/09/13 21:55:52;;;;;;;3.58;2.60;;;;;;;24.35;52.43;100188.91;5048794;27;96726;-87
2023/09/13 21:58:19;;;;;;;3.20;2.90;;;;;;;24.31;52.44;100195.50;5053730;27;96879;-86
2023/09/13 22:00:45;;;;;;;4.53;1.80;;;;;;;24.34;52.46;100199.75;5050152;27;101926;-86
2023/09/13 22:03:11;;;;;;;6.68;5.82;;;;;;;24.29;52.43;100199.31;5050646;27;100366;-87
2023/09/13 22:05:36;;;;;;;2.72;2.00;;;;;;;24.26;52.71;100195.13;5040022;27;96741;-87
2023/09/13 22:08:02;;;;;;;2.50;2.30;;;;;;;24.24;52.70;100206.97;5056289;27;97103;-87
2023/09/13 22:10:28;;;;;;;4.32;4.03;;;;;;;24.21;52.92;100208.09;5038951;27;100932;-87
2023/09/13 22:12:53;;;;;;;4.05;1.73;;;;;;;24.16;52.91;100205.84;5040052;27;101331;-87
2023/09/13 22:15:20;;;;;;;5.15;2.70;;;;;;;24.11;52.86;100210.78;5055526;27;97162;-85
2023/09/13 22:17:52;;;;;;;3.65;1.80;;;;;;;24.09;53.04;100210.09;5040389;27;97031;-86
2023/09/13 22:20:18;;;;;;;4.30;2.20;;;;;;;24.04;53.16;100209.66;5031341;27;101544;-88
2023/09/13 22:22:43;;;;;;;3.00;1.65;;;;;;;24.01;53.33;100204.59;5051882;27;98259;-87
2023/09/13 22:25:09;;;;;;;6.13;1.92;;;;;;;23.98;53.42;100214.75;5051475;27;97388;-87
2023/09/13 22:27:38;;;;;;;7.38;1.92;;;;;;;23.93;53.56;100224.03;5041141;27;96867;-87
2023/09/13 22:30:05;;;;;;;3.20;2.20;;;;;;;23.92;53.54;100225.03;5062404;27;97333;-87
2023/09/13 22:32:32;;;;;;;4.65;2.25;;;;;;;23.89;53.74;100227.16;5046882;27;101682;-86
2023/09/13 22:34:57;;;;;;;1.88;1.60;;;;;;;23.82;53.94;100226.00;5060722;27;96744;-87
2023/09/13 22:37:23;;;;;;;1.83;1.52;;;;;;;23.76;54.15;100234.63;5054653;27;96721;-85
2023/09/13 22:39:48;;;;;;;3.05;1.90;;;;;;;23.72;53.88;100234.91;5068425;27;98525;-86
2023/09/13 22:42:14;;;;;;;4.07;2.10;;;;;;;23.68;54.07;100238.81;5052936;27;98762;-87
2023/09/13 22:44:39;;;;;;;2.95;1.70;;;;;;;23.64;54.30;100240.06;5056933;27;97308;-86
2023/09/13 22:47:06;;;;;;;2.22;1.80;;;;;;;23.59;54.57;100230.75;5062046;27;97094;-88
2023/09/13 22:49:31;;;;;;;2.47;1.80;;;;;;;23.56;54.57;100236.38;5044707;27;98458;-87
2023/09/13 22:51:59;;;;;;;3.53;1.67;;;;;;;23.53;54.51;100229.47;5051505;27;97219;-88
2023/09/13 22:54:25;;;;;;;2.15;1.80;;;;;;;23.50;54.85;100229.75;5053417;27;97370;-87
2023/09/13 22:56:51;;;;;;;1.92;1.67;;;;;;;23.45;54.91;100234.69;5050067;27;96981;-87
2023/09/13 22:59:17;;;;;;;2.67;1.90;;;;;;;23.40;54.99;100229.72;5059756;27;97994;-87
2023/09/13 23:01:44;;;;;;;3.95;2.20;;;;;;;23.37;55.20;100231.84;5061790;27;99920;-87
2023/09/13 23:04:14;;;;;;;3.75;2.10;;;;;;;23.34;55.46;100232.94;5058256;27;96771;-87
2023/09/13 23:06:42;;;;;;;2.60;2.10;;;;;;;23.30;55.32;100225.31;5035984;27;96994;-87
2023/09/13 23:09:11;;;;;;;3.58;2.10;;;;;;;23.28;55.62;100230.81;5047451;27;101123;-87
2023/09/13 23:11:40;;;;;;;5.50;3.20;;;;;;;23.24;55.62;100232.06;5055430;27;97842;-86
2023/09/13 23:14:05;;;;;;;6.30;4.60;;;;;;;23.22;55.67;100231.38;5049082;27;96825;-87
2023/09/13 23:16:34;;;;;;;4.32;3.00;;;;;;;23.21;55.70;100229.66;5040339;27;97209;-85
2023/09/13 23:19:03;;;;;;;6.20;4.47;;;;;;;23.20;55.91;100236.00;5065439;27;98621;-88
2023/09/13 23:21:29;;;;;;;7.20;4.57;;;;;;;23.20;55.94;100227.97;5051059;27;100301;-87
2023/09/13 23:23:55;;;;;;;7.60;4.50;;;;;;;23.14;55.92;100228.50;5034440;27;97214;-87
2023/09/13 23:26:21;;;;;;;9.95;6.18;;;;;;;23.14;56.26;100229.34;5039870;27;96889;-88
2023/09/13 23:28:46;;;;;;;4.75;4.45;;;;;;;23.16;56.23;100222.03;5053436;27;100458;-87
2023/09/13 23:31:18;;;;;;;5.32;4.93;;;;;;;23.16;56.32;100226.56;5050406;27;97858;-88
2023/09/13 23:33:44;;;;;;;4.10;3.78;;;;;;;23.15;56.28;100225.69;5039283;27;97114;-88
2023/09/13 23:36:12;;;;;;;7.93;5.63;;;;;;;23.15;56.43;100228.38;5042596;27;96916;-86
2023/09/13 23:38:38;;;;;;;2.75;2.22;;;;;;;23.16;56.48;100230.06;5040268;27;101366;-86
2023/09/13 23:41:15;;;;;;;9.27;8.02;;;;;;;23.15;56.50;100225.69;5054616;27;101187;-88
2023/09/13 23:43:42;;;;;;;7.25;3.55;;;;;;;23.15;56.34;100223.00;5069875;27;97084;-87
2023/09/13 23:46:09;;;;;;;1.90;1.50;;;;;;;23.14;56.26;100229.34;5040039;27;96970;-87
2023/09/13 23:48:38;;;;;;;3.80;2.03;;;;;;;23.11;56.52;100228.78;5048319;27;98164;-84
2023/09/13 23:51:05;;;;;;;4.13;1.88;;;;;;;23.10;56.39;100233.31;5049857;27;97345;-88
2023/09/13 23:53:32;;;;;;;2.55;1.63;;;;;;;23.13;56.46;100237.53;5052887;27;96745;-87
2023/09/13 23:55:57;;;;;;;4.78;1.95;;;;;;;23.07;56.57;100225.53;5048611;27;96870;-88
2023/09/13 23:58:23;;;;;;;3.20;2.00;;;;;;;23.05;56.60;100231.00;5054452;27;101271;-87
